createdAt,value
2019-02-12T00:02:17.430Z,77.69
2019-02-12T00:04:50.539Z,77.34
2019-02-12T00:07:24.754Z,77.01
2019-02-12T00:09:56.537Z,78.22
2019-02-12T00:12:28.509Z,78.18
2019-02-12T00:14:59.723Z,77.47
2019-02-12T00:17:33.695Z,77.41
2019-02-12T00:20:07.478Z,78.13
2019-02-12T00:22:40.573Z,78.73
2019-02-12T00:25:12.559Z,78.47
2019-02-12T00:27:44.175Z,77.12
2019-02-12T00:30:15.633Z,77.26
2019-02-12T00:32:47.598Z,78.01
2019-02-12T00:35:21.593Z,77.37
2019-02-12T00:37:52.773Z,77.71
2019-02-12T00:40:23.985Z,77.61
2019-02-12T00:42:57.599Z,77.93
2019-02-12T00:45:28.812Z,77.24
2019-02-12T00:48:00.020Z,77.05
2019-02-12T00:50:31.840Z,77.33
2019-02-12T00:53:03.864Z,77.35
2019-02-12T00:55:35.669Z,77.66
2019-02-12T00:58:06.974Z,77.29
2019-02-12T01:00:38.907Z,77.00
2019-02-12T01:03:11.898Z,77.34
2019-02-12T01:05:44.696Z,77.66
2019-02-12T01:08:16.912Z,77.06
2019-02-12T01:10:48.181Z,77.31
2019-02-12T01:13:21.925Z,78.35
2019-02-12T01:15:53.118Z,78.32
2019-02-12T01:18:28.482Z,78.91
2019-02-12T01:21:00.881Z,78.93
2019-02-12T01:23:34.791Z,78.92
2019-02-12T01:26:10.549Z,79.27
2019-02-12T01:28:42.622Z,79.42
2019-02-12T01:31:15.003Z,78.98
2019-02-12T01:33:48.040Z,78.89
2019-02-12T01:36:21.531Z,79.83
2019-02-12T01:38:58.524Z,79.50
2019-02-12T01:41:32.075Z,79.39
2019-02-12T01:44:03.335Z,79.12
2019-02-12T01:46:36.126Z,79.53
2019-02-12T01:49:10.195Z,79.79
2019-02-12T01:51:42.907Z,79.33
2019-02-12T01:54:19.475Z,79.06
2019-02-12T01:56:51.076Z,78.78
2019-02-12T01:59:24.258Z,78.82
2019-02-12T02:01:55.455Z,78.14
2019-02-12T02:04:29.017Z,78.04
2019-02-12T02:07:00.218Z,78.41
2019-02-12T02:09:34.847Z,78.26
2019-02-12T02:12:10.077Z,77.82
2019-02-12T02:14:42.008Z,78.30
2019-02-12T02:17:16.025Z,78.69
2019-02-12T02:19:47.235Z,78.50
2019-02-12T02:22:18.446Z,78.53
2019-02-12T02:24:52.141Z,77.43
2019-02-12T02:27:24.180Z,77.74
2019-02-12T02:30:21.230Z,77.80
2019-02-12T02:32:52.426Z,77.76
2019-02-12T02:35:23.681Z,77.30
2019-02-12T02:37:57.167Z,77.24
2019-02-12T02:40:31.222Z,76.24
2019-02-12T02:43:05.137Z,75.59
2019-02-12T02:45:40.677Z,74.95
2019-02-12T02:48:13.176Z,75.87
2019-02-12T02:50:44.718Z,74.61
2019-02-12T02:53:18.298Z,74.92
2019-02-12T02:55:53.755Z,74.93
2019-02-12T02:58:26.300Z,75.67
2019-02-12T03:01:00.273Z,75.51
2019-02-12T03:03:34.123Z,75.89
2019-02-12T03:06:05.939Z,75.14
2019-02-12T03:08:39.440Z,75.93
2019-02-12T03:11:12.274Z,75.53
2019-02-12T03:13:44.477Z,75.51
2019-02-12T03:16:19.270Z,75.61
2019-02-12T03:18:53.395Z,75.93
2019-02-12T03:21:28.219Z,76.28
2019-02-12T03:24:02.479Z,75.66
2019-02-12T03:26:36.497Z,76.17
2019-02-12T03:29:10.714Z,76.20
2019-02-12T03:31:44.574Z,75.98
2019-02-12T03:34:15.764Z,75.73
2019-02-12T03:36:46.985Z,75.45
2019-02-12T03:39:18.203Z,75.50
2019-02-12T03:41:51.420Z,75.11
2019-02-12T03:44:25.516Z,75.92
2019-02-12T03:46:56.746Z,75.36
2019-02-12T03:49:30.393Z,74.82
2019-02-12T03:52:12.598Z,73.61
2019-02-12T03:54:37.517Z,74.59
2019-02-12T03:57:09.827Z,73.71
2019-02-12T03:59:41.930Z,73.80
2019-02-12T04:02:15.783Z,72.87
2019-02-12T04:04:47.497Z,72.11
2019-02-12T04:07:19.511Z,70.82
2019-02-12T04:09:52.057Z,70.44
2019-02-12T04:12:25.735Z,70.95
2019-02-12T04:14:57.678Z,72.13
2019-02-12T04:17:31.275Z,71.35
2019-02-12T04:20:04.704Z,70.98
2019-02-12T04:22:37.535Z,70.56
2019-02-12T04:25:10.879Z,69.53
2019-02-12T04:27:44.385Z,69.67
2019-02-12T04:30:20.359Z,71.33
2019-02-12T04:32:52.756Z,71.35
2019-02-12T04:35:23.985Z,72.38
2019-02-12T04:37:55.274Z,72.05
2019-02-12T04:40:29.653Z,71.90
2019-02-12T04:43:02.780Z,70.97
2019-02-12T04:45:36.736Z,70.12
2019-02-12T04:48:10.707Z,71.09
2019-02-12T04:50:43.657Z,70.85
2019-02-12T04:53:15.689Z,70.58
2019-02-12T04:55:48.502Z,69.74
2019-02-12T04:58:21.894Z,70.05
2019-02-12T05:00:54.736Z,69.59
2019-02-12T05:03:25.944Z,70.24
2019-02-12T05:05:58.456Z,71.00
2019-02-12T05:09:08.549Z,71.12
2019-02-12T05:11:42.187Z,71.36
2019-02-12T05:14:14.961Z,70.59
2019-02-12T05:16:47.910Z,71.11
2019-02-12T05:19:19.876Z,69.97
2019-02-12T05:21:53.891Z,70.97
2019-02-12T05:24:33.676Z,70.37
2019-02-12T05:27:04.871Z,68.87
2019-02-12T05:29:36.960Z,68.90
2019-02-12T05:32:10.996Z,68.84
2019-02-12T05:34:44.603Z,69.46
2019-02-12T05:37:16.348Z,69.61
2019-02-12T05:39:48.012Z,70.11
2019-02-12T05:42:20.862Z,70.47
2019-02-12T05:44:52.059Z,70.43
2019-02-12T05:47:26.152Z,70.42
2019-02-12T05:50:02.009Z,70.98
2019-02-12T05:52:37.755Z,70.50
2019-02-12T05:55:10.535Z,71.46
2019-02-12T05:57:43.374Z,72.17
2019-02-12T06:00:17.252Z,72.33
2019-02-12T06:02:51.206Z,72.04
2019-02-12T06:05:27.618Z,72.04
2019-02-12T06:08:00.574Z,72.65
2019-02-12T06:10:32.505Z,73.03
2019-02-12T06:13:06.144Z,73.49
2019-02-12T06:15:40.762Z,73.99
2019-02-12T06:18:14.239Z,73.99
2019-02-12T06:20:45.501Z,74.43
2019-02-12T06:23:18.990Z,75.36
2019-02-12T06:25:51.232Z,76.16
2019-02-12T06:28:23.196Z,76.50
2019-02-12T06:30:54.451Z,77.38
2019-02-12T06:33:28.198Z,77.96
2019-02-12T06:36:01.338Z,77.89
2019-02-12T06:38:35.376Z,78.41
2019-02-12T06:41:09.593Z,78.48
2019-02-12T06:43:43.318Z,78.06
2019-02-12T06:46:14.495Z,78.11
2019-02-12T06:48:49.954Z,78.62
2019-02-12T06:51:22.633Z,79.89
2019-02-12T06:53:54.421Z,79.94
2019-02-12T06:56:29.140Z,80.66
2019-02-12T06:59:03.129Z,80.66
2019-02-12T07:01:35.341Z,80.40
2019-02-12T07:04:20.602Z,80.43
2019-02-12T07:07:19.250Z,81.52
2019-02-12T07:09:57.639Z,81.25
2019-02-12T07:12:53.060Z,81.95
2019-02-12T07:15:46.771Z,81.89
2019-02-12T07:19:00.376Z,81.61
2019-02-12T07:21:55.835Z,81.91
2019-02-12T07:25:17.125Z,81.73
2019-02-12T07:28:35.654Z,82.11
2019-02-12T07:31:41.595Z,82.22
2019-02-12T07:35:00.866Z,82.28
2019-02-12T07:38:19.341Z,82.61
2019-02-12T07:41:20.706Z,82.28
2019-02-12T07:44:31.793Z,82.66
2019-02-12T07:47:45.492Z,82.75
2019-02-12T07:50:49.876Z,82.04
2019-02-12T07:53:34.244Z,82.12
2019-02-12T07:56:32.422Z,80.73
2019-02-12T07:59:30.079Z,80.44
2019-02-12T08:02:33.883Z,80.70
2019-02-12T08:05:43.046Z,80.50
2019-02-12T08:09:07.274Z,81.11
2019-02-12T08:12:13.875Z,79.93
2019-02-12T08:15:17.723Z,80.95
2019-02-12T08:18:37.613Z,81.02
2019-02-12T08:21:31.470Z,79.94
2019-02-12T08:24:47.602Z,79.52
2019-02-12T08:28:13.840Z,80.43
2019-02-12T08:31:24.492Z,80.21
2019-02-12T08:34:18.487Z,80.49
2019-02-12T08:37:17.996Z,79.80
2019-02-12T08:40:30.453Z,80.08
2019-02-12T08:43:46.945Z,79.76
2019-02-12T08:46:58.278Z,79.60
2019-02-12T08:50:12.272Z,78.86
2019-02-12T08:52:56.530Z,79.09
2019-02-12T08:56:19.685Z,77.25
2019-02-12T08:59:17.047Z,77.04
2019-02-12T09:02:15.263Z,76.60
2019-02-12T09:05:28.494Z,75.90
2019-02-12T09:08:28.930Z,75.58
2019-02-12T09:11:38.584Z,76.31
2019-02-12T09:14:48.994Z,76.22
2019-02-12T09:17:58.071Z,75.97
2019-02-12T09:21:16.404Z,75.81
2019-02-12T09:24:32.309Z,76.15
2019-02-12T09:27:14.839Z,75.63
2019-02-12T09:30:34.458Z,75.72
2019-02-12T09:33:34.623Z,75.24
2019-02-12T09:36:35.838Z,75.83
2019-02-12T09:39:47.969Z,75.30
2019-02-12T09:43:04.906Z,75.27
2019-02-12T09:46:25.997Z,74.38
2019-02-12T09:49:40.910Z,74.74
2019-02-12T09:53:08.383Z,74.60
2019-02-12T09:56:05.698Z,75.39
2019-02-12T09:59:01.450Z,74.76
2019-02-12T10:01:59.891Z,75.00
2019-02-12T10:05:14.528Z,75.25
2019-02-12T10:08:28.646Z,74.65
2019-02-12T10:11:54.550Z,74.89
2019-02-12T10:15:05.332Z,73.12
2019-02-12T10:18:05.960Z,74.00
2019-02-12T10:21:08.718Z,73.06
2019-02-12T10:24:19.033Z,73.37
2019-02-12T10:26:47.697Z,72.31
2019-02-12T10:29:33.107Z,72.86
2019-02-12T10:32:08.733Z,73.41
2019-02-12T10:34:40.634Z,72.65
2019-02-12T10:37:12.128Z,72.05
2019-02-12T10:39:45.188Z,72.45
2019-02-12T10:42:19.276Z,73.28
2019-02-12T10:44:53.029Z,73.39
2019-02-12T10:47:24.345Z,73.82
2019-02-12T10:49:56.184Z,73.62
2019-02-12T10:52:30.069Z,73.88
2019-02-12T10:55:03.244Z,73.76
2019-02-12T10:57:34.753Z,74.35
2019-02-12T11:00:12.508Z,73.90
2019-02-12T11:02:45.720Z,74.57
2019-02-12T11:05:17.453Z,74.31
2019-02-12T11:07:48.969Z,74.24
2019-02-12T11:10:22.413Z,74.83
2019-02-12T11:12:54.977Z,75.00
2019-02-12T11:15:26.186Z,76.03
2019-02-12T11:17:58.978Z,76.17
2019-02-12T11:20:30.431Z,76.56
2019-02-12T11:23:04.487Z,76.21
2019-02-12T11:25:38.458Z,76.37
2019-02-12T11:28:12.481Z,76.26
2019-02-12T11:30:44.905Z,76.68
2019-02-12T11:33:17.534Z,78.00
2019-02-12T11:35:48.709Z,78.14
2019-02-12T11:38:24.192Z,78.69
2019-02-12T11:40:56.780Z,78.84
2019-02-12T11:43:30.715Z,79.95
2019-02-12T11:46:04.808Z,82.24
2019-02-12T11:48:38.737Z,83.23
2019-02-12T11:51:10.428Z,84.01
2019-02-12T11:53:43.810Z,84.34
2019-02-12T11:56:19.249Z,84.52
2019-02-12T11:58:51.652Z,84.69
2019-02-12T12:01:25.999Z,83.91
2019-02-12T12:04:01.656Z,84.15
2019-02-12T12:06:35.360Z,83.56
2019-02-12T12:09:12.710Z,83.24
2019-02-12T12:11:45.062Z,82.42
2019-02-12T12:14:18.538Z,81.23
2019-02-12T12:16:49.741Z,81.30
2019-02-12T12:19:23.846Z,81.08
2019-02-12T12:21:57.637Z,81.40
2019-02-12T12:24:33.320Z,83.07
2019-02-12T12:27:04.801Z,84.00
2019-02-12T12:29:38.784Z,84.88
2019-02-12T12:32:10.384Z,84.76
2019-02-12T12:34:41.721Z,84.89
2019-02-12T12:37:15.827Z,84.43
2019-02-12T12:39:48.837Z,84.69
2019-02-12T12:42:22.858Z,84.55
2019-02-12T12:44:54.810Z,84.44
2019-02-12T12:47:28.887Z,83.78
2019-02-12T12:50:02.012Z,83.15
2019-02-12T12:52:33.231Z,82.25
2019-02-12T12:55:06.422Z,81.35
2019-02-12T12:57:41.845Z,81.54
2019-02-12T13:00:12.477Z,80.76
2019-02-12T13:02:45.916Z,81.93
2019-02-12T13:05:19.924Z,81.98
2019-02-12T13:07:52.146Z,82.98
2019-02-12T13:10:25.136Z,83.60
2019-02-12T13:12:56.366Z,84.51
2019-02-12T13:15:30.189Z,85.19
2019-02-12T13:18:03.759Z,86.38
2019-02-12T13:20:34.952Z,86.61
2019-02-12T13:23:10.636Z,86.08
2019-02-12T13:25:44.825Z,86.34
2019-02-12T13:28:16.852Z,86.06
2019-02-12T13:30:48.059Z,85.86
2019-02-12T13:33:20.853Z,85.66
2019-02-12T13:35:53.101Z,84.77
2019-02-12T13:38:27.093Z,83.31
2019-02-12T13:41:02.614Z,81.96
2019-02-12T13:43:36.080Z,82.44
2019-02-12T13:46:10.631Z,81.24
2019-02-12T13:48:44.097Z,80.08
2019-02-12T13:51:17.918Z,80.21
2019-02-12T13:53:51.401Z,80.19
2019-02-12T13:56:25.222Z,79.47
2019-02-12T13:59:00.793Z,79.64
2019-02-12T14:01:33.078Z,79.97
2019-02-12T14:04:06.255Z,80.96
2019-02-12T14:06:40.251Z,82.25
2019-02-12T14:09:14.266Z,83.21
2019-02-12T14:11:45.553Z,83.40
2019-02-12T14:14:17.132Z,83.35
2019-02-12T14:16:48.368Z,82.90
2019-02-12T14:19:21.285Z,82.84
2019-02-12T14:21:52.491Z,82.10
2019-02-12T14:24:23.665Z,82.17
2019-02-12T14:26:54.875Z,81.03
2019-02-12T14:29:28.310Z,81.58
2019-02-12T14:32:02.217Z,80.84
2019-02-12T14:34:35.241Z,80.63
2019-02-12T14:37:07.436Z,80.08
2019-02-12T14:39:38.715Z,79.92
2019-02-12T14:42:11.541Z,79.08
2019-02-12T14:44:45.536Z,78.57
2019-02-12T14:47:16.851Z,80.18
2019-02-12T14:49:48.061Z,80.14
2019-02-12T14:52:21.590Z,80.40
2019-02-12T14:54:55.588Z,79.60
2019-02-12T14:57:29.596Z,78.86
2019-02-12T15:00:01.789Z,78.60
2019-02-12T15:02:34.644Z,79.12
2019-02-12T15:05:10.793Z,79.05
2019-02-12T15:07:42.866Z,79.03
2019-02-12T15:10:16.751Z,79.16
2019-02-12T15:12:48.386Z,78.88
2019-02-12T15:15:28.876Z,77.68
2019-02-12T15:18:01.489Z,77.09
2019-02-12T15:20:35.632Z,76.52
2019-02-12T15:23:10.569Z,76.65
2019-02-12T15:25:45.220Z,76.52
2019-02-12T15:28:16.668Z,76.33
2019-02-12T15:30:48.199Z,77.27
2019-02-12T15:33:21.474Z,76.46
2019-02-12T15:35:52.694Z,76.82
2019-02-12T15:38:26.695Z,76.11
2019-02-12T15:41:02.186Z,75.75
2019-02-12T15:43:34.977Z,75.88
2019-02-12T15:46:06.532Z,76.89
2019-02-12T15:48:39.573Z,76.58
2019-02-12T15:51:10.960Z,75.85
2019-02-12T15:53:42.212Z,76.71
2019-02-12T15:56:13.435Z,76.15
2019-02-12T15:58:45.415Z,76.68
2019-02-12T16:01:17.736Z,76.57
2019-02-12T16:03:51.841Z,76.59
2019-02-12T16:06:24.636Z,77.67
2019-02-12T16:09:00.201Z,77.39
2019-02-12T16:11:32.680Z,77.71
2019-02-12T16:14:03.960Z,77.82
2019-02-12T16:16:35.171Z,78.98
2019-02-12T16:19:07.854Z,78.81
2019-02-12T16:21:39.739Z,77.86
2019-02-12T16:24:11.879Z,78.56
2019-02-12T16:26:44.909Z,79.54
2019-02-12T16:29:16.109Z,79.71
2019-02-12T16:31:48.896Z,78.97
2019-02-12T16:34:20.858Z,79.72
2019-02-12T16:36:55.173Z,80.00
2019-02-12T16:39:27.988Z,79.95
2019-02-12T16:41:59.518Z,80.05
2019-02-12T16:44:32.924Z,78.53
2019-02-12T16:47:06.862Z,79.46
2019-02-12T16:49:41.664Z,79.88
2019-02-12T16:52:20.719Z,79.20
2019-02-12T16:54:48.890Z,80.19
2019-02-12T16:57:20.079Z,80.82
2019-02-12T16:59:53.991Z,80.48
2019-02-12T17:02:28.399Z,80.47
2019-02-12T17:05:02.034Z,80.54
2019-02-12T17:07:36.082Z,81.31
2019-02-12T17:10:10.371Z,81.10
2019-02-12T17:12:44.063Z,81.22
2019-02-12T17:15:18.050Z,81.94
2019-02-12T17:17:49.492Z,81.75
2019-02-12T17:20:23.145Z,81.40
2019-02-12T17:22:55.388Z,81.29
2019-02-12T17:25:28.045Z,81.69
2019-02-12T17:28:01.161Z,81.94
2019-02-12T17:30:32.727Z,81.87
2019-02-12T17:33:05.519Z,81.40
2019-02-12T17:35:37.140Z,81.50
2019-02-12T17:38:11.316Z,82.04
2019-02-12T17:40:43.233Z,81.64
2019-02-12T17:43:16.215Z,81.34
2019-02-12T17:45:49.214Z,81.09
2019-02-12T17:48:21.431Z,80.22
2019-02-12T17:50:55.225Z,80.66
2019-02-12T17:53:26.481Z,80.74
2019-02-12T17:56:00.637Z,80.52
2019-02-12T17:58:34.219Z,80.48
2019-02-12T18:01:06.174Z,80.89
2019-02-12T18:03:39.221Z,80.93
2019-02-12T18:06:13.594Z,81.05
2019-02-12T18:08:44.771Z,81.47
2019-02-12T18:11:18.228Z,82.02
2019-02-12T18:13:52.223Z,82.61
2019-02-12T18:16:25.438Z,83.07
2019-02-12T18:19:02.147Z,82.82
2019-02-12T18:21:33.339Z,83.95
2019-02-12T18:24:07.441Z,83.57
2019-02-12T18:26:38.764Z,82.86
2019-02-12T18:29:10.261Z,82.90
2019-02-12T18:31:43.449Z,83.93
2019-02-12T18:34:15.661Z,84.73
2019-02-12T18:36:51.095Z,84.99
2019-02-12T18:39:23.555Z,85.64
2019-02-12T18:41:55.327Z,85.43
2019-02-12T18:44:27.383Z,86.04
2019-02-12T18:46:59.384Z,86.44
2019-02-12T18:49:32.520Z,85.88
2019-02-12T18:52:03.735Z,85.71
2019-02-12T18:54:34.910Z,85.84
2019-02-12T18:57:06.192Z,86.17
2019-02-12T18:59:39.441Z,86.62
2019-02-12T19:02:13.434Z,85.79
2019-02-12T19:04:45.951Z,85.74
2019-02-12T19:07:18.673Z,85.77
2019-02-12T19:09:51.562Z,85.38
2019-02-12T19:12:24.716Z,85.48
2019-02-12T19:14:58.074Z,85.95
2019-02-12T19:17:29.584Z,86.02
2019-02-12T19:20:02.799Z,85.65
2019-02-12T19:22:46.895Z,85.83
2019-02-12T19:25:21.372Z,85.27
2019-02-12T19:27:53.619Z,84.62
2019-02-12T19:30:27.615Z,83.06
2019-02-12T19:33:03.518Z,82.85
2019-02-12T19:35:36.243Z,83.14
2019-02-12T19:38:09.703Z,82.91
2019-02-12T19:40:42.653Z,82.67
2019-02-12T19:43:15.550Z,82.16
2019-02-12T19:45:49.029Z,81.52
2019-02-12T19:48:22.919Z,81.23
2019-02-12T19:50:55.888Z,81.41
2019-02-12T19:53:27.804Z,81.66
2019-02-12T19:55:59.060Z,81.18
2019-02-12T19:58:31.957Z,80.88
2019-02-12T20:01:05.529Z,80.90
2019-02-12T20:03:37.747Z,80.37
2019-02-12T20:06:12.205Z,80.82
2019-02-12T20:08:45.818Z,81.28
2019-02-12T20:11:19.975Z,80.13
2019-02-12T20:13:54.372Z,80.12
2019-02-12T20:16:28.830Z,79.58
2019-02-12T20:19:02.168Z,80.19
2019-02-12T20:21:37.747Z,80.59
2019-02-12T20:24:12.130Z,80.74
2019-02-12T20:26:47.038Z,80.98
2019-02-12T20:29:20.888Z,80.03
2019-02-12T20:31:56.077Z,79.80
2019-02-12T20:34:29.036Z,79.75
2019-02-12T20:37:00.392Z,80.64
2019-02-12T20:39:31.789Z,79.81
2019-02-12T20:42:05.129Z,80.43
2019-02-12T20:44:42.885Z,80.42
2019-02-12T20:47:17.197Z,79.94
2019-02-12T20:49:49.036Z,80.81
2019-02-12T20:52:20.976Z,80.52
2019-02-12T20:54:55.948Z,80.13
2019-02-12T20:57:30.892Z,80.37
2019-02-12T21:00:08.884Z,80.03
2019-02-12T21:02:41.565Z,80.68
2019-02-12T21:05:15.191Z,80.57
2019-02-12T21:07:46.976Z,80.67
2019-02-12T21:10:21.725Z,80.35
2019-02-12T21:12:56.876Z,80.20
2019-02-12T21:15:29.725Z,80.33
2019-02-12T21:18:04.606Z,80.87
2019-02-12T21:20:38.554Z,80.55
2019-02-12T21:23:12.601Z,80.63
2019-02-12T21:25:45.318Z,80.32
2019-02-12T21:28:19.430Z,80.79
2019-02-12T21:30:54.203Z,80.49
2019-02-12T21:33:28.803Z,80.01
2019-02-12T21:36:01.445Z,79.79
2019-02-12T21:38:39.152Z,79.48
2019-02-12T21:41:12.958Z,79.49
2019-02-12T21:43:46.369Z,79.89
2019-02-12T21:46:20.787Z,79.42
2019-02-12T21:48:52.399Z,78.86
2019-02-12T21:51:25.657Z,79.19
2019-02-12T21:54:02.043Z,79.67
2019-02-12T21:56:33.353Z,78.85
2019-02-12T21:59:06.299Z,78.78
2019-02-12T22:01:39.272Z,79.21
2019-02-12T22:04:11.352Z,78.57
2019-02-12T22:06:45.354Z,78.92
2019-02-12T22:09:19.375Z,78.77
2019-02-12T22:11:50.796Z,78.77
2019-02-12T22:14:23.592Z,79.37
2019-02-12T22:16:55.479Z,78.83
2019-02-12T22:19:31.007Z,78.61
2019-02-12T22:22:03.426Z,78.54
2019-02-12T22:24:37.468Z,79.33
2019-02-12T22:27:16.287Z,79.88
2019-02-12T22:29:49.410Z,78.76
2019-02-12T22:32:22.428Z,78.80
2019-02-12T22:34:55.598Z,79.23
2019-02-12T22:37:27.584Z,78.86
2019-02-12T22:39:58.771Z,79.05
2019-02-12T22:42:32.026Z,79.48
2019-02-12T22:45:03.376Z,79.93
2019-02-12T22:47:34.543Z,78.93
2019-02-12T22:50:10.245Z,79.46
2019-02-12T22:52:42.041Z,79.49
2019-02-12T22:55:15.944Z,78.98
2019-02-12T22:58:41.889Z,78.92
2019-02-12T23:01:15.697Z,78.33
2019-02-12T23:03:49.885Z,78.81
2019-02-12T23:06:23.611Z,78.37
2019-02-12T23:08:55.670Z,78.87
2019-02-12T23:11:29.936Z,78.30
2019-02-12T23:14:02.565Z,77.87
2019-02-12T23:16:35.723Z,78.48
2019-02-12T23:19:10.197Z,78.88
2019-02-12T23:21:44.043Z,78.75
2019-02-12T23:24:17.678Z,78.51
2019-02-12T23:26:48.888Z,79.00
2019-02-12T23:29:23.657Z,79.34
2019-02-12T23:31:56.614Z,79.54
2019-02-12T23:34:29.802Z,79.00
2019-02-12T23:37:03.772Z,79.72
2019-02-12T23:39:37.904Z,79.92
2019-02-12T23:42:09.135Z,80.08
2019-02-12T23:44:44.393Z,80.17
2019-02-12T23:47:18.374Z,79.46
2019-02-12T23:49:51.622Z,79.10
2019-02-12T23:52:24.831Z,79.48
2019-02-12T23:54:58.646Z,79.88
2019-02-12T23:57:31.447Z,79.59
